createdAt,value
2018-02-08T00:00:35.754Z,32.93
2018-02-08T00:03:04.023Z,31.53
2018-02-08T00:05:32.418Z,32.60
2018-02-08T00:08:00.672Z,33.83
2018-02-08T00:10:28.937Z,34.93
2018-02-08T00:12:58.078Z,33.27
2018-02-08T00:15:26.391Z,32.80
2018-02-08T00:17:54.642Z,35.83
2018-02-08T00:20:23.106Z,32.13
2018-02-08T00:22:51.403Z,33.93
2018-02-08T00:25:19.679Z,32.37
2018-02-08T00:27:47.957Z,31.52
2018-02-08T00:30:16.234Z,32.10
2018-02-08T00:32:44.555Z,34.17
2018-02-08T00:35:12.817Z,32.10
2018-02-08T00:37:41.083Z,34.10
2018-02-08T00:40:09.337Z,31.70
2018-02-08T00:42:37.647Z,32.17
2018-02-08T00:45:05.890Z,34.57
2018-02-08T00:47:34.170Z,35.67
2018-02-08T00:50:02.513Z,33.80
2018-02-08T00:52:30.853Z,33.92
2018-02-08T00:54:59.118Z,34.80
2018-02-08T00:57:27.386Z,34.43
2018-02-08T00:59:56.418Z,34.47
2018-02-08T01:02:24.814Z,35.57
2018-02-08T01:04:53.127Z,35.00
2018-02-08T01:07:21.378Z,35.70
2018-02-08T01:09:49.629Z,35.40
2018-02-08T01:12:17.931Z,34.00
2018-02-08T01:14:46.182Z,34.53
2018-02-08T01:17:15.311Z,34.77
2018-02-08T01:19:43.553Z,32.80
2018-02-08T01:22:12.590Z,33.70
2018-02-08T01:24:40.833Z,32.77
2018-02-08T01:27:09.882Z,36.20
2018-02-08T01:29:38.121Z,33.27
2018-02-08T01:32:06.395Z,33.30
2018-02-08T01:34:35.408Z,34.50
2018-02-08T01:37:03.694Z,34.80
2018-02-08T01:39:31.945Z,34.07
2018-02-08T01:42:00.987Z,34.50
2018-02-08T01:44:29.237Z,34.17
2018-02-08T01:46:58.283Z,31.90
2018-02-08T01:49:38.642Z,34.90
2018-02-08T01:52:07.015Z,36.73
2018-02-08T01:54:35.266Z,35.73
2018-02-08T01:57:03.555Z,34.40
2018-02-08T01:59:32.549Z,33.60
2018-02-08T02:02:00.823Z,36.83
2018-02-08T02:04:29.081Z,34.70
2018-02-08T02:06:58.133Z,34.50
2018-02-08T02:09:26.511Z,35.73
2018-02-08T02:11:54.778Z,36.50
2018-02-08T02:14:23.033Z,33.77
2018-02-08T02:16:52.166Z,35.60
2018-02-08T02:19:20.485Z,35.80
2018-02-08T02:21:48.713Z,34.07
2018-02-08T02:24:16.973Z,35.70
2018-02-08T02:26:46.115Z,34.07
2018-02-08T02:29:14.390Z,34.33
2018-02-08T02:31:42.675Z,32.13
2018-02-08T02:34:11.775Z,33.97
2018-02-08T02:36:40.054Z,34.27
2018-02-08T02:39:08.344Z,36.43
2018-02-08T02:41:36.606Z,34.37
2018-02-08T02:44:04.858Z,35.70
2018-02-08T02:46:35.422Z,34.63
2018-02-08T02:49:03.684Z,36.43
2018-02-08T02:51:32.754Z,35.53
2018-02-08T02:54:01.002Z,35.37
2018-02-08T02:56:29.276Z,34.60
2018-02-08T02:58:57.566Z,37.33
2018-02-08T03:01:25.938Z,36.17
2018-02-08T03:03:54.192Z,37.20
2018-02-08T03:06:22.466Z,34.10
2018-02-08T03:08:51.490Z,34.10
2018-02-08T03:11:19.769Z,36.08
2018-02-08T03:13:48.064Z,34.83
2018-02-08T03:16:16.314Z,34.20
2018-02-08T03:18:44.622Z,34.37
2018-02-08T03:21:12.898Z,35.70
2018-02-08T03:23:41.181Z,36.03
2018-02-08T03:26:09.466Z,35.30
2018-02-08T03:28:37.709Z,32.83
2018-02-08T03:31:20.862Z,37.50
2018-02-08T03:33:49.185Z,34.33
2018-02-08T03:36:18.258Z,35.42
2018-02-08T03:38:46.502Z,37.60
2018-02-08T03:41:14.850Z,32.90
2018-02-08T03:43:43.090Z,37.63
2018-02-08T03:46:11.357Z,37.53
2018-02-08T03:48:39.655Z,35.50
2018-02-08T03:51:07.940Z,35.42
2018-02-08T03:53:36.189Z,34.53
2018-02-08T03:56:04.461Z,35.05
2018-02-08T03:58:33.478Z,35.97
2018-02-08T04:01:01.786Z,35.60
2018-02-08T04:03:30.054Z,36.00
2018-02-08T04:05:58.310Z,36.30
2018-02-08T04:08:26.577Z,35.60
2018-02-08T04:10:54.838Z,33.33
2018-02-08T04:13:23.227Z,37.03
2018-02-08T04:15:51.454Z,35.63
2018-02-08T04:18:19.743Z,36.00
2018-02-08T04:20:48.024Z,34.42
2018-02-08T04:23:16.291Z,38.97
2018-02-08T04:25:44.550Z,37.60
2018-02-08T04:28:13.687Z,37.72
2018-02-08T04:30:41.966Z,36.28
2018-02-08T04:33:10.241Z,38.30
2018-02-08T04:35:38.493Z,35.30
2018-02-08T04:38:06.798Z,38.10
2018-02-08T04:40:46.826Z,37.28
2018-02-08T04:43:26.982Z,37.28
2018-02-08T04:48:59.990Z,35.35
2018-02-08T04:51:29.135Z,34.70
2018-02-08T04:53:57.418Z,38.33
2018-02-08T04:56:25.701Z,36.45
2018-02-08T04:58:54.010Z,36.38
2018-02-08T05:01:22.245Z,36.80
2018-02-08T05:03:50.538Z,37.13
2018-02-08T05:06:18.784Z,39.72
2018-02-08T05:08:47.057Z,38.30
2018-02-08T05:11:15.370Z,38.53
2018-02-08T05:13:43.654Z,36.70
2018-02-08T05:16:12.763Z,37.47
2018-02-08T05:18:41.055Z,36.10
2018-02-08T05:21:09.308Z,36.05
2018-02-08T05:23:37.593Z,37.00
2018-02-08T05:26:05.908Z,37.47
2018-02-08T05:28:34.158Z,37.78
2018-02-08T05:31:02.419Z,38.50
2018-02-08T05:33:30.717Z,38.58
2018-02-08T05:35:58.999Z,37.60
2018-02-08T05:38:27.270Z,40.87
2018-02-08T05:40:55.540Z,39.53
2018-02-08T05:43:23.833Z,38.38
2018-02-08T05:45:52.135Z,37.60
2018-02-08T05:48:20.424Z,36.70
2018-02-08T05:50:48.785Z,37.65
2018-02-08T05:53:17.061Z,37.47
2018-02-08T05:55:45.305Z,38.33
2018-02-08T05:58:13.577Z,36.05
2018-02-08T06:00:42.605Z,39.42
2018-02-08T06:03:10.870Z,36.78
2018-02-08T06:05:39.182Z,38.03
2018-02-08T06:08:07.452Z,36.92
2018-02-08T06:10:35.713Z,35.08
2018-02-08T06:13:03.984Z,38.05
2018-02-08T06:15:33.002Z,40.67
2018-02-08T06:18:01.346Z,37.90
2018-02-08T06:20:29.570Z,38.65
2018-02-08T06:22:58.346Z,41.60
2018-02-08T06:25:26.668Z,38.60
2018-02-08T06:27:55.661Z,38.63
2018-02-08T06:30:23.937Z,36.90
2018-02-08T06:32:52.332Z,38.70
2018-02-08T06:35:20.603Z,39.00
2018-02-08T06:37:48.981Z,37.90
2018-02-08T06:40:17.263Z,37.97
2018-02-08T06:42:45.579Z,35.95
2018-02-08T06:45:13.802Z,39.37
2018-02-08T06:47:42.249Z,37.93
2018-02-08T06:50:10.596Z,39.07
2018-02-08T06:52:38.907Z,40.10
2018-02-08T06:55:07.150Z,40.50
2018-02-08T06:57:35.439Z,39.50
2018-02-08T07:00:03.701Z,38.15
2018-02-08T07:02:32.003Z,38.67
2018-02-08T07:05:00.374Z,38.85
2018-02-08T07:07:28.643Z,37.50
2018-02-08T07:09:56.922Z,36.67
2018-02-08T07:12:25.216Z,36.73
2018-02-08T07:14:53.501Z,37.47
2018-02-08T07:17:21.822Z,37.75
2018-02-08T07:19:50.063Z,36.17
2018-02-08T07:22:18.422Z,37.13
2018-02-08T07:24:46.742Z,38.90
2018-02-08T07:27:15.038Z,37.20
2018-02-08T07:29:43.322Z,39.50
2018-02-08T07:32:11.689Z,37.05
2018-02-08T07:34:39.957Z,36.45
2018-02-08T07:37:08.213Z,34.03
2018-02-08T07:39:36.484Z,39.15
2018-02-08T07:42:04.802Z,40.30
2018-02-08T07:44:33.065Z,36.58
2018-02-08T07:47:01.345Z,37.58
2018-02-08T07:49:29.616Z,35.53
2018-02-08T07:51:57.881Z,38.40
2018-02-08T07:54:27.031Z,37.75
2018-02-08T07:56:55.308Z,37.27
2018-02-08T07:59:23.557Z,33.50
2018-02-08T08:01:52.703Z,38.47
2018-02-08T08:04:20.954Z,34.37
2018-02-08T08:06:49.213Z,36.60
2018-02-08T08:09:18.224Z,36.87
2018-02-08T08:11:46.562Z,38.30
2018-02-08T08:14:14.917Z,35.10
2018-02-08T08:16:43.202Z,35.23
2018-02-08T08:19:11.449Z,36.23
2018-02-08T08:21:39.729Z,34.97
2018-02-08T08:24:07.986Z,36.00
2018-02-08T08:26:36.269Z,38.17
2018-02-08T08:29:04.654Z,37.23
2018-02-08T08:31:32.881Z,37.20
2018-02-08T08:34:01.178Z,37.23
2018-02-08T08:36:29.481Z,35.80
2018-02-08T08:38:57.758Z,37.07
2018-02-08T08:41:25.966Z,36.37
2018-02-08T08:43:54.666Z,37.77
2018-02-08T08:46:23.678Z,38.60
2018-02-08T08:48:51.985Z,37.97
2018-02-08T08:51:20.238Z,38.47
2018-02-08T08:53:49.457Z,36.07
2018-02-08T08:56:17.723Z,38.20
2018-02-08T08:58:45.993Z,36.87
2018-02-08T09:01:14.299Z,39.80
2018-02-08T09:03:42.578Z,38.57
2018-02-08T09:06:10.881Z,39.43
2018-02-08T09:08:39.145Z,38.83
2018-02-08T09:11:07.453Z,41.67
2018-02-08T09:13:35.694Z,40.90
2018-02-08T09:16:03.946Z,38.60
2018-02-08T09:18:32.257Z,39.93
2018-02-08T09:21:00.511Z,40.50
2018-02-08T09:23:28.760Z,39.57
2018-02-08T09:25:57.026Z,37.73
2018-02-08T09:28:25.382Z,39.33
2018-02-08T09:30:53.650Z,39.40
2018-02-08T09:33:21.967Z,39.80
2018-02-08T09:35:50.230Z,38.30
2018-02-08T09:38:18.495Z,38.97
2018-02-08T09:40:46.777Z,38.43
2018-02-08T09:43:15.031Z,39.57
2018-02-08T09:45:43.339Z,39.50
2018-02-08T09:48:11.631Z,40.47
2018-02-08T09:50:39.900Z,41.20
2018-02-08T09:53:08.186Z,39.00
2018-02-08T09:55:36.575Z,38.97
2018-02-08T09:58:04.851Z,40.33
2018-02-08T10:00:33.119Z,39.43
2018-02-08T10:03:01.413Z,41.43
2018-02-08T10:05:29.792Z,42.33
2018-02-08T10:07:58.078Z,41.53
2018-02-08T10:10:26.983Z,38.33
2018-02-08T10:12:56.079Z,39.60
2018-02-08T10:15:24.350Z,41.47
2018-02-08T10:17:52.633Z,39.93
2018-02-08T10:20:20.894Z,41.30
2018-02-08T10:22:49.221Z,42.13
2018-02-08T10:25:17.469Z,38.87
2018-02-08T10:27:45.857Z,40.90
2018-02-08T10:30:14.171Z,40.20
2018-02-08T10:32:42.418Z,40.60
2018-02-08T10:35:10.737Z,40.27
2018-02-08T10:37:39.073Z,42.30
2018-02-08T10:40:07.361Z,38.03
2018-02-08T10:42:35.638Z,40.97
2018-02-08T10:45:03.919Z,40.67
2018-02-08T10:47:32.209Z,40.70
2018-02-08T10:50:00.497Z,41.33
2018-02-08T10:52:28.778Z,40.60
2018-02-08T10:54:57.086Z,40.97
2018-02-08T10:57:25.334Z,42.03
2018-02-08T10:59:53.618Z,41.17
2018-02-08T11:02:21.877Z,40.10
2018-02-08T11:04:51.002Z,41.33
2018-02-08T11:07:19.278Z,42.83
2018-02-08T11:09:48.545Z,42.40
2018-02-08T11:12:17.577Z,42.53
2018-02-08T11:14:45.858Z,41.47
2018-02-08T11:17:14.172Z,42.23
2018-02-08T11:19:42.477Z,41.03
2018-02-08T11:22:10.699Z,40.73
2018-02-08T11:24:38.957Z,40.77
2018-02-08T11:27:07.299Z,40.90
2018-02-08T11:29:35.533Z,41.10
2018-02-08T11:32:03.832Z,40.37
2018-02-08T11:34:32.149Z,43.73
2018-02-08T11:37:00.409Z,43.00
2018-02-08T11:39:28.682Z,42.20
2018-02-08T11:41:56.925Z,41.17
2018-02-08T11:44:25.193Z,43.17
2018-02-08T11:46:53.524Z,44.23
2018-02-08T11:49:21.890Z,39.77
2018-02-08T11:51:50.313Z,42.17
2018-02-08T11:54:18.657Z,40.70
2018-02-08T11:56:46.951Z,40.57
2018-02-08T11:59:15.198Z,44.37
2018-02-08T12:01:44.103Z,42.47
2018-02-08T12:04:12.537Z,41.90
2018-02-08T12:06:41.651Z,42.57
2018-02-08T12:09:09.892Z,42.40
2018-02-08T12:11:38.178Z,42.07
2018-02-08T12:14:06.421Z,42.47
2018-02-08T12:16:34.712Z,43.53
2018-02-08T12:19:02.962Z,41.40
2018-02-08T12:21:32.039Z,44.53
2018-02-08T12:24:00.285Z,43.00
2018-02-08T12:26:28.552Z,43.90
2018-02-08T12:28:56.801Z,43.73
2018-02-08T12:31:25.954Z,44.27
2018-02-08T12:33:54.281Z,42.43
2018-02-08T12:36:23.334Z,44.00
2018-02-08T12:38:51.642Z,42.03
2018-02-08T12:41:19.882Z,45.17
2018-02-08T12:43:48.160Z,47.97
2018-02-08T12:46:16.447Z,42.23
2018-02-08T12:48:44.689Z,42.20
2018-02-08T12:51:13.831Z,43.47
2018-02-08T12:53:42.111Z,42.23
2018-02-08T12:56:10.398Z,46.20
2018-02-08T12:58:38.664Z,43.57
2018-02-08T13:01:06.949Z,42.40
2018-02-08T13:03:35.231Z,45.10
2018-02-08T13:06:03.523Z,43.60
2018-02-08T13:08:31.782Z,44.03
2018-02-08T13:11:00.040Z,43.03
2018-02-08T13:13:29.079Z,44.00
2018-02-08T13:15:57.339Z,43.27
2018-02-08T13:18:25.598Z,44.00
2018-02-08T13:20:54.738Z,45.20
2018-02-08T13:23:23.013Z,45.30
2018-02-08T13:25:51.328Z,45.10
2018-02-08T13:28:19.674Z,44.13
2018-02-08T13:30:47.932Z,45.60
2018-02-08T13:33:16.194Z,43.67
2018-02-08T13:35:45.211Z,45.27
2018-02-08T13:38:13.462Z,44.03
2018-02-08T13:40:44.184Z,44.47
2018-02-08T13:43:12.428Z,43.40
2018-02-08T13:45:40.666Z,41.83
2018-02-08T13:48:12.264Z,44.63
2018-02-08T13:51:00.450Z,47.03
2018-02-08T13:53:34.520Z,42.07
2018-02-08T13:59:14.094Z,45.73
2018-02-08T14:01:48.079Z,44.40
2018-02-08T14:04:17.106Z,45.80
2018-02-08T14:06:45.400Z,43.37
2018-02-08T14:09:13.670Z,42.57
2018-02-08T14:11:41.957Z,45.23
2018-02-08T14:14:10.317Z,45.80
2018-02-08T14:16:38.642Z,44.97
2018-02-08T14:19:07.007Z,45.00
2018-02-08T14:21:35.262Z,44.73
2018-02-08T14:24:03.517Z,45.90
2018-02-08T14:26:32.530Z,45.10
2018-02-08T14:29:00.866Z,48.27
2018-02-08T14:31:29.217Z,44.93
2018-02-08T14:33:57.547Z,46.20
2018-02-08T14:36:25.807Z,42.93
2018-02-08T14:38:54.081Z,44.00
2018-02-08T14:41:22.463Z,43.47
2018-02-08T14:43:50.721Z,46.87
2018-02-08T14:46:19.014Z,45.40
2018-02-08T14:48:47.322Z,43.00
2018-02-08T14:51:15.561Z,44.00
2018-02-08T14:53:43.809Z,43.10
2018-02-08T14:56:12.078Z,44.87
2018-02-08T14:58:40.443Z,45.23
2018-02-08T15:01:08.718Z,44.07
2018-02-08T15:03:36.989Z,45.93
2018-02-08T15:06:05.263Z,42.40
2018-02-08T15:08:33.538Z,46.43
2018-02-08T15:11:01.802Z,44.00
2018-02-08T15:13:30.052Z,45.13
2018-02-08T15:15:58.383Z,44.80
2018-02-08T15:18:26.637Z,47.30
2018-02-08T15:20:54.922Z,43.30
2018-02-08T15:23:23.161Z,41.33
2018-02-08T15:25:51.410Z,45.77
2018-02-08T15:28:19.682Z,44.07
2018-02-08T15:30:47.964Z,46.00
2018-02-08T15:33:16.248Z,45.63
2018-02-08T15:35:44.495Z,44.70
2018-02-08T15:38:13.694Z,45.13
2018-02-08T15:40:42.767Z,45.60
2018-02-08T15:43:11.011Z,42.90
2018-02-08T15:45:40.085Z,44.13
2018-02-08T15:48:08.395Z,45.07
2018-02-08T15:50:36.674Z,43.23
2018-02-08T15:53:04.938Z,43.27
2018-02-08T15:55:33.182Z,44.80
2018-02-08T15:58:02.230Z,45.40
2018-02-08T16:00:30.506Z,45.30
2018-02-08T16:02:58.781Z,43.63
2018-02-08T16:05:27.081Z,46.00
2018-02-08T16:07:55.365Z,46.63
2018-02-08T16:10:24.364Z,42.23
2018-02-08T16:12:52.624Z,46.90
2018-02-08T16:15:20.899Z,41.80
2018-02-08T16:17:49.185Z,44.57
2018-02-08T16:20:17.462Z,43.13
2018-02-08T16:22:46.502Z,45.77
2018-02-08T16:25:14.852Z,43.33
2018-02-08T16:27:43.110Z,46.92
2018-02-08T16:30:11.433Z,44.23
2018-02-08T16:32:39.710Z,42.97
2018-02-08T16:35:08.084Z,44.93
2018-02-08T16:37:36.375Z,43.63
2018-02-08T16:40:04.745Z,45.50
2018-02-08T16:42:33.030Z,45.70
2018-02-08T16:45:01.297Z,45.93
2018-02-08T16:47:29.563Z,45.22
2018-02-08T16:49:57.886Z,42.63
2018-02-08T16:52:26.693Z,43.67
2018-02-08T16:54:54.970Z,46.63
2018-02-08T16:57:23.225Z,45.80
2018-02-08T16:59:51.505Z,46.75
2018-02-08T17:02:19.757Z,45.63
2018-02-08T17:04:48.038Z,43.97
2018-02-08T17:07:16.306Z,46.03
2018-02-08T17:09:44.559Z,44.25
2018-02-08T17:12:13.613Z,42.83
2018-02-08T17:14:41.867Z,43.00
2018-02-08T17:17:10.142Z,43.73
2018-02-08T17:19:38.397Z,42.95
2018-02-08T17:22:07.455Z,43.22
2018-02-08T17:24:35.972Z,43.28
2018-02-08T17:27:04.321Z,49.27
2018-02-08T17:29:32.569Z,45.57
2018-02-08T17:32:00.843Z,47.10
2018-02-08T17:34:29.866Z,47.20
2018-02-08T17:36:58.147Z,46.80
2018-02-08T17:39:26.394Z,45.53
2018-02-08T17:41:55.538Z,46.87
2018-02-08T17:44:23.824Z,45.87
2018-02-08T17:46:52.086Z,46.90
2018-02-08T17:49:20.370Z,47.38
2018-02-08T17:51:48.638Z,49.27
2018-02-08T17:54:16.906Z,47.45
2018-02-08T17:56:45.223Z,49.15
2018-02-08T17:59:13.503Z,49.55
2018-02-08T18:01:41.761Z,49.27
2018-02-08T18:04:10.057Z,78.07
2018-02-08T18:06:38.338Z,295.37
2018-02-08T18:09:06.614Z,272.77
2018-02-08T18:11:34.938Z,600.73
2018-02-08T18:14:03.307Z,524.60
2018-02-08T18:16:31.561Z,351.37
2018-02-08T18:18:59.955Z,344.15
2018-02-08T18:21:29.137Z,130.57
2018-02-08T18:23:57.418Z,310.47
2018-02-08T18:26:25.690Z,515.35
2018-02-08T18:28:53.972Z,487.40
2018-02-08T18:31:22.289Z,489.40
2018-02-08T18:33:50.673Z,377.17
2018-02-08T18:36:19.033Z,110.13
2018-02-08T18:38:47.318Z,67.87
2018-02-08T18:41:15.580Z,53.03
2018-02-08T18:43:43.934Z,50.40
2018-02-08T18:46:12.162Z,50.87
2018-02-08T18:48:40.415Z,50.53
2018-02-08T18:51:08.689Z,51.37
2018-02-08T18:53:37.004Z,46.95
2018-02-08T18:56:05.273Z,45.07
2018-02-08T18:58:34.599Z,46.10
2018-02-08T19:01:02.849Z,44.07
2018-02-08T19:03:31.152Z,44.63
2018-02-08T19:06:00.908Z,45.97
2018-02-08T19:08:29.135Z,46.90
2018-02-08T19:10:57.438Z,47.80
2018-02-08T19:13:25.818Z,47.57
2018-02-08T19:15:54.215Z,46.93
2018-02-08T19:18:23.275Z,46.40
2018-02-08T19:20:51.571Z,46.23
2018-02-08T19:23:19.850Z,44.70
2018-02-08T19:25:48.129Z,43.93
2018-02-08T19:28:16.415Z,47.00
2018-02-08T19:30:44.676Z,45.60
2018-02-08T19:33:12.939Z,48.80
2018-02-08T19:35:41.287Z,43.00
2018-02-08T19:38:09.526Z,43.70
2018-02-08T19:40:37.895Z,48.57
2018-02-08T19:43:06.333Z,45.83
2018-02-08T19:45:35.800Z,48.33
2018-02-08T19:48:04.153Z,48.78
2018-02-08T19:50:32.410Z,47.30
2018-02-08T19:53:00.681Z,46.83
2018-02-08T19:55:28.938Z,50.30
2018-02-08T19:57:57.213Z,46.90
2018-02-08T20:00:25.481Z,45.83
2018-02-08T20:02:53.784Z,46.03
2018-02-08T20:05:22.040Z,44.40
2018-02-08T20:07:50.325Z,47.70
2018-02-08T20:10:18.703Z,47.77
2018-02-08T20:12:46.988Z,42.00
2018-02-08T20:18:08.834Z,45.33
2018-02-08T20:20:37.089Z,47.47
2018-02-08T20:23:05.410Z,47.90
2018-02-08T20:25:34.480Z,44.75
2018-02-08T20:28:02.789Z,46.17
2018-02-08T20:30:31.050Z,43.87
2018-02-08T20:32:59.365Z,42.65
2018-02-08T20:35:27.630Z,45.93
2018-02-08T20:37:56.316Z,47.35
2018-02-08T20:40:28.243Z,43.30
2018-02-08T20:43:03.093Z,45.50
2018-02-08T20:45:31.365Z,46.03
2018-02-08T20:47:59.637Z,41.88
2018-02-08T20:50:28.786Z,41.25
2018-02-08T20:52:57.070Z,41.15
2018-02-08T20:55:25.349Z,44.93
2018-02-08T20:57:53.698Z,39.80
2018-02-08T21:00:21.976Z,38.70
2018-02-08T21:02:50.282Z,35.35
2018-02-08T21:05:18.558Z,38.90
2018-02-08T21:07:46.856Z,36.15
2018-02-08T21:10:15.130Z,35.85
2018-02-08T21:12:43.390Z,34.15
2018-02-08T21:15:11.731Z,34.13
2018-02-08T21:17:39.960Z,33.30
2018-02-08T21:20:08.954Z,32.83
2018-02-08T21:22:37.229Z,30.67
2018-02-08T21:25:06.249Z,31.37
2018-02-08T21:27:34.508Z,29.60
2018-02-08T21:30:02.778Z,30.58
2018-02-08T21:32:31.034Z,30.17
2018-02-08T21:34:59.306Z,29.50
2018-02-08T21:37:27.566Z,27.52
2018-02-08T21:39:55.994Z,27.93
2018-02-08T21:42:24.331Z,28.23
2018-02-08T21:44:52.622Z,29.12
2018-02-08T21:47:20.977Z,26.20
2018-02-08T21:49:49.244Z,26.27
2018-02-08T21:52:17.508Z,28.02
2018-02-08T21:54:45.786Z,27.62
2018-02-08T21:57:14.107Z,29.00
2018-02-08T21:59:42.445Z,28.50
2018-02-08T22:02:11.509Z,28.23
2018-02-08T22:04:39.767Z,30.92
2018-02-08T22:07:08.137Z,28.35
2018-02-08T22:09:36.396Z,31.27
2018-02-08T22:12:04.714Z,30.77
2018-02-08T22:14:32.977Z,26.75
2018-02-08T22:17:01.277Z,29.15
2018-02-08T22:19:29.561Z,26.90
2018-02-08T22:21:57.886Z,29.95
2018-02-08T22:24:26.496Z,27.50
2018-02-08T22:26:54.849Z,30.20
2018-02-08T22:29:23.119Z,31.15
2018-02-08T22:31:52.018Z,30.23
2018-02-08T22:34:20.470Z,29.17
2018-02-08T22:36:48.795Z,28.50
2018-02-08T22:39:17.062Z,30.33
2018-02-08T22:41:46.845Z,28.20
2018-02-08T22:44:15.134Z,28.30
2018-02-08T22:46:43.410Z,28.15
2018-02-08T22:49:11.689Z,28.62
2018-02-08T22:51:39.971Z,29.75
2018-02-08T22:54:08.247Z,29.63
2018-02-08T22:56:36.506Z,28.25
2018-02-08T22:59:04.842Z,33.15
2018-02-08T23:01:33.076Z,28.95
2018-02-08T23:04:01.351Z,28.17
2018-02-08T23:06:29.658Z,30.17
2018-02-08T23:08:57.934Z,27.77
2018-02-08T23:11:26.233Z,27.50
2018-02-08T23:13:54.523Z,27.10
2018-02-08T23:16:22.785Z,28.70
2018-02-08T23:18:51.065Z,29.00
2018-02-08T23:21:19.325Z,27.85
2018-02-08T23:23:47.626Z,27.65
2018-02-08T23:26:15.903Z,29.48
2018-02-08T23:28:44.169Z,30.80
2018-02-08T23:31:12.442Z,28.62
2018-02-08T23:33:40.715Z,31.85
2018-02-08T23:36:09.023Z,33.97
2018-02-08T23:38:37.337Z,34.78
2018-02-08T23:41:05.582Z,35.13
2018-02-08T23:43:33.842Z,37.60
2018-02-08T23:46:02.118Z,38.75
2018-02-08T23:48:30.377Z,45.17
2018-02-08T23:50:58.689Z,42.65
2018-02-08T23:53:26.981Z,43.60
2018-02-08T23:55:55.263Z,39.75
2018-02-08T23:58:23.543Z,39.85
